createdAt,value
2018-07-22T00:04:05.301Z,51.60
2018-07-22T00:06:34.343Z,51.50
2018-07-22T00:09:02.447Z,51.50
2018-07-22T00:11:30.625Z,51.50
2018-07-22T00:13:59.401Z,51.50
2018-07-22T00:16:27.517Z,51.70
2018-07-22T00:18:55.798Z,51.80
2018-07-22T00:21:23.958Z,52.00
2018-07-22T00:23:52.227Z,52.00
2018-07-22T00:26:21.746Z,52.30
2018-07-22T00:28:50.428Z,52.20
2018-07-22T00:31:18.608Z,52.30
2018-07-22T00:33:46.788Z,52.40
2018-07-22T00:36:15.028Z,52.70
2018-07-22T00:38:43.594Z,53.10
2018-07-22T00:41:11.760Z,53.30
2018-07-22T00:43:39.868Z,53.70
2018-07-22T00:46:07.964Z,53.70
2018-07-22T00:48:36.210Z,53.90
2018-07-22T00:51:04.510Z,54.00
2018-07-22T00:53:32.786Z,54.20
2018-07-22T00:56:01.588Z,54.30
2018-07-22T00:58:29.727Z,54.40
2018-07-22T01:00:58.386Z,54.60
2018-07-22T01:03:26.726Z,54.80
2018-07-22T01:05:55.926Z,54.80
2018-07-22T01:08:24.168Z,54.90
2018-07-22T01:10:52.386Z,55.10
2018-07-22T01:13:20.586Z,55.40
2018-07-22T01:15:48.758Z,55.50
2018-07-22T01:20:46.181Z,55.40
2018-07-22T01:23:14.314Z,54.90
2018-07-22T01:25:42.618Z,55.00
2018-07-22T01:28:10.767Z,54.00
2018-07-22T01:30:38.995Z,53.80
2018-07-22T01:33:07.247Z,53.80
2018-07-22T01:35:35.392Z,53.70
2018-07-22T01:38:03.498Z,53.90
2018-07-22T01:40:31.818Z,54.00
2018-07-22T01:43:00.706Z,54.60
2018-07-22T01:45:28.862Z,54.70
2018-07-22T01:47:57.212Z,54.90
2018-07-22T01:50:25.390Z,55.30
2018-07-22T01:52:53.610Z,55.40
2018-07-22T01:55:21.938Z,55.60
2018-07-22T01:57:50.112Z,55.70
2018-07-22T02:00:18.304Z,55.90
2018-07-22T02:02:47.322Z,56.00
2018-07-22T02:05:16.994Z,56.40
2018-07-22T02:07:45.181Z,56.90
2018-07-22T02:10:13.281Z,57.00
2018-07-22T02:12:41.423Z,57.60
2018-07-22T02:15:09.587Z,58.10
2018-07-22T02:17:37.904Z,58.40
2018-07-22T02:20:06.137Z,58.80
2018-07-22T02:22:34.326Z,58.90
2018-07-22T02:25:02.708Z,59.30
2018-07-22T02:27:30.875Z,59.40
2018-07-22T02:29:59.039Z,59.50
2018-07-22T02:32:27.264Z,59.70
2018-07-22T02:34:56.359Z,59.80
2018-07-22T02:37:24.480Z,59.90
2018-07-22T02:39:52.728Z,60.00
2018-07-22T02:42:20.919Z,60.30
2018-07-22T02:44:49.152Z,61.00
2018-07-22T02:47:17.314Z,61.40
2018-07-22T02:49:45.442Z,61.70
2018-07-22T02:52:13.604Z,62.00
2018-07-22T02:54:42.525Z,62.50
2018-07-22T02:57:10.827Z,63.00
2018-07-22T02:59:38.929Z,63.10
2018-07-22T03:02:07.132Z,63.20
2018-07-22T03:04:35.311Z,63.60
2018-07-22T03:07:03.509Z,63.80
2018-07-22T03:09:31.619Z,64.10
2018-07-22T03:12:01.060Z,64.70
2018-07-22T03:14:29.231Z,66.00
2018-07-22T03:16:57.383Z,66.90
2018-07-22T03:19:25.566Z,66.30
2018-07-22T03:21:53.715Z,66.50
2018-07-22T03:24:22.713Z,66.30
2018-07-22T03:26:50.889Z,66.60
2018-07-22T03:29:19.081Z,67.00
2018-07-22T03:31:48.937Z,67.30
2018-07-22T03:34:17.112Z,67.10
2018-07-22T03:36:45.795Z,66.80
2018-07-22T03:39:15.167Z,66.80
2018-07-22T03:41:43.316Z,66.80
2018-07-22T03:44:11.626Z,67.50
2018-07-22T03:46:39.791Z,67.50
2018-07-22T03:49:08.042Z,67.70
2018-07-22T03:51:36.250Z,67.60
2018-07-22T03:54:04.582Z,68.00
2018-07-22T03:56:32.700Z,68.40
2018-07-22T03:59:02.031Z,68.50
2018-07-22T04:01:31.407Z,68.50
2018-07-22T04:03:59.721Z,68.40
2018-07-22T04:06:27.920Z,68.30
2018-07-22T04:08:56.818Z,68.50
2018-07-22T04:11:25.082Z,68.30
2018-07-22T04:13:53.227Z,68.40
2018-07-22T04:16:21.554Z,68.70
2018-07-22T04:18:53.056Z,68.80
2018-07-22T04:21:23.137Z,69.20
2018-07-22T04:23:53.041Z,67.00
2018-07-22T04:26:21.980Z,67.50
2018-07-22T04:28:51.004Z,67.80
2018-07-22T04:31:19.134Z,64.60
2018-07-22T04:33:47.348Z,64.40
2018-07-22T04:36:15.488Z,64.50
2018-07-22T04:38:43.684Z,65.70
2018-07-22T04:41:11.838Z,66.30
2018-07-22T04:43:40.242Z,66.10
2018-07-22T04:46:08.432Z,66.10
2018-07-22T04:48:36.624Z,66.30
2018-07-22T04:51:05.590Z,66.30
2018-07-22T04:53:33.809Z,66.20
2018-07-22T04:56:02.216Z,66.20
2018-07-22T04:58:30.692Z,66.30
2018-07-22T05:00:59.516Z,66.40
2018-07-22T05:03:27.834Z,66.40
2018-07-22T05:05:56.060Z,64.10
2018-07-22T05:08:24.236Z,63.30
2018-07-22T05:10:54.970Z,63.40
2018-07-22T05:13:23.121Z,63.90
2018-07-22T05:15:51.252Z,63.40
2018-07-22T05:18:19.684Z,63.50
2018-07-22T05:20:48.689Z,62.00
2018-07-22T05:25:44.996Z,59.90
2018-07-22T05:28:13.165Z,59.70
2018-07-22T05:30:41.524Z,59.80
2018-07-22T05:33:10.266Z,59.80
2018-07-22T05:35:38.444Z,59.20
2018-07-22T05:38:06.610Z,58.50
2018-07-22T05:40:34.752Z,58.40
2018-07-22T05:43:02.907Z,58.10
2018-07-22T05:45:32.186Z,58.00
2018-07-22T05:48:00.437Z,58.20
2018-07-22T05:50:28.661Z,58.10
2018-07-22T05:52:56.814Z,57.60
2018-07-22T05:55:25.182Z,57.80
2018-07-22T05:57:53.402Z,57.80
2018-07-22T06:00:21.754Z,56.60
2018-07-22T06:02:49.933Z,56.20
2018-07-22T06:05:18.204Z,55.80
2018-07-22T06:07:46.376Z,55.00
2018-07-22T06:12:42.412Z,54.70
2018-07-22T06:15:10.792Z,55.70
2018-07-22T06:17:38.951Z,56.00
2018-07-22T06:20:07.705Z,55.90
2018-07-22T06:22:35.985Z,55.10
2018-07-22T06:25:04.577Z,54.30
2018-07-22T06:27:32.695Z,54.00
2018-07-22T06:30:00.861Z,53.40
2018-07-22T06:32:29.093Z,53.30
2018-07-22T06:34:57.215Z,52.90
2018-07-22T06:37:25.450Z,52.30
2018-07-22T06:42:21.593Z,52.60
2018-07-22T06:44:49.793Z,52.30
2018-07-22T06:47:17.987Z,51.30
2018-07-22T06:49:46.147Z,51.10
2018-07-22T06:52:14.315Z,51.10
2018-07-22T06:54:42.565Z,50.70
2018-07-22T06:57:10.671Z,50.90
2018-07-22T06:59:38.956Z,50.80
2018-07-22T07:02:07.117Z,51.80
2018-07-22T07:07:03.332Z,50.80
2018-07-22T07:09:31.555Z,50.40
2018-07-22T07:11:59.911Z,50.10
2018-07-22T07:14:28.086Z,49.50
2018-07-22T07:16:56.275Z,48.70
2018-07-22T07:19:24.644Z,48.40
2018-07-22T07:21:52.822Z,48.10
2018-07-22T07:24:20.959Z,47.50
2018-07-22T07:26:49.220Z,48.10
2018-07-22T07:29:17.349Z,47.50
2018-07-22T07:31:46.040Z,48.10
2018-07-22T07:34:14.213Z,46.60
2018-07-22T07:36:42.948Z,47.10
2018-07-22T07:39:12.600Z,45.30
2018-07-22T07:41:41.180Z,44.10
2018-07-22T07:44:09.995Z,44.40
2018-07-22T07:46:38.247Z,43.60
2018-07-22T07:49:06.562Z,41.60
2018-07-22T07:51:34.936Z,40.90
2018-07-22T07:54:03.169Z,41.10
2018-07-22T07:56:31.430Z,38.40
2018-07-22T07:58:59.590Z,38.10
2018-07-22T08:01:27.742Z,38.50
2018-07-22T08:03:55.918Z,38.20
2018-07-22T08:06:24.198Z,38.50
2018-07-22T08:08:52.316Z,38.60
2018-07-22T08:11:20.521Z,38.40
2018-07-22T08:18:44.648Z,36.50
2018-07-22T08:23:41.060Z,36.00
2018-07-22T08:26:09.509Z,35.80
2018-07-22T08:28:49.183Z,35.10
2018-07-22T08:31:17.388Z,35.10
2018-07-22T08:33:45.706Z,35.10
2018-07-22T08:41:09.806Z,36.30
2018-07-22T08:43:37.966Z,37.40
2018-07-22T08:46:07.341Z,37.40
2018-07-22T08:48:35.808Z,37.50
2018-07-22T08:53:32.053Z,37.80
2018-07-22T08:58:28.183Z,38.20
2018-07-22T09:00:56.335Z,39.10
2018-07-22T09:03:24.465Z,38.00
2018-07-22T09:08:20.688Z,37.50
2018-07-22T09:10:48.801Z,37.30
2018-07-22T09:13:16.958Z,35.80
2018-07-22T09:15:45.097Z,36.30
2018-07-22T09:18:13.260Z,36.20
2018-07-22T09:20:41.375Z,36.20
2018-07-22T09:23:09.605Z,35.70
2018-07-22T09:25:38.600Z,35.20
2018-07-22T09:28:06.833Z,35.40
2018-07-22T09:30:35.041Z,35.60
2018-07-22T09:33:03.239Z,35.30
2018-07-22T09:35:31.361Z,35.60
2018-07-22T09:37:59.567Z,35.70
2018-07-22T09:40:27.996Z,35.50
2018-07-22T09:42:56.292Z,35.40
2018-07-22T09:45:24.539Z,34.80
2018-07-22T09:47:52.677Z,34.80
2018-07-22T09:50:20.953Z,35.00
2018-07-22T09:52:49.239Z,35.00
2018-07-22T09:55:17.468Z,35.10
2018-07-22T09:57:46.155Z,34.80
2018-07-22T10:00:18.626Z,35.10
2018-07-22T10:02:48.295Z,34.90
2018-07-22T10:05:16.759Z,35.30
2018-07-22T10:07:45.027Z,35.00
2018-07-22T10:10:14.763Z,34.40
2018-07-22T10:12:45.187Z,34.30
2018-07-22T10:15:13.387Z,34.50
2018-07-22T10:17:43.122Z,33.90
2018-07-22T10:20:12.729Z,33.90
2018-07-22T10:22:41.191Z,34.00
2018-07-22T10:25:09.613Z,33.90
2018-07-22T10:27:37.791Z,33.20
2018-07-22T10:30:07.008Z,33.50
2018-07-22T10:32:35.811Z,33.20
2018-07-22T10:35:04.031Z,33.50
2018-07-22T10:37:32.195Z,32.90
2018-07-22T10:40:00.281Z,32.80
2018-07-22T10:42:28.503Z,32.50
2018-07-22T10:44:56.743Z,32.80
2018-07-22T10:47:25.009Z,32.50
2018-07-22T10:49:53.433Z,33.00
2018-07-22T10:54:49.575Z,33.10
2018-07-22T10:59:45.846Z,32.70
2018-07-22T11:02:14.714Z,33.00
2018-07-22T11:04:43.144Z,32.90
2018-07-22T11:07:11.302Z,33.50
2018-07-22T11:09:39.692Z,33.80
2018-07-22T11:12:08.387Z,33.40
2018-07-22T11:14:36.819Z,33.00
2018-07-22T11:17:06.911Z,33.30
2018-07-22T11:19:35.193Z,32.90
2018-07-22T11:22:03.444Z,33.10
2018-07-22T11:24:31.659Z,33.00
2018-07-22T11:26:59.896Z,33.00
2018-07-22T11:29:28.113Z,33.10
2018-07-22T11:31:56.405Z,33.10
2018-07-22T11:34:24.565Z,33.40
2018-07-22T11:36:52.966Z,33.20
2018-07-22T11:39:21.218Z,32.90
2018-07-22T11:41:49.499Z,33.00
2018-07-22T11:44:17.642Z,33.70
2018-07-22T11:46:46.336Z,33.20
2018-07-22T11:51:42.441Z,32.90
2018-07-22T11:54:10.672Z,33.70
2018-07-22T11:59:07.583Z,34.60
2018-07-22T12:01:35.861Z,34.00
2018-07-22T12:04:04.100Z,34.50
2018-07-22T12:06:32.451Z,34.50
2018-07-22T12:09:01.419Z,35.40
2018-07-22T12:11:29.585Z,35.10
2018-07-22T12:13:57.795Z,35.50
2018-07-22T12:16:26.096Z,35.90
2018-07-22T12:18:55.643Z,35.40
2018-07-22T12:21:24.392Z,36.10
2018-07-22T12:23:52.581Z,36.80
2018-07-22T12:26:20.745Z,36.20
2018-07-22T12:28:49.083Z,36.70
2018-07-22T12:31:17.343Z,36.70
2018-07-22T12:36:13.995Z,36.50
2018-07-22T12:38:42.262Z,36.70
2018-07-22T12:41:10.563Z,36.10
2018-07-22T12:43:38.878Z,35.90
2018-07-22T12:46:07.086Z,36.10
2018-07-22T12:48:35.647Z,35.70
2018-07-22T12:51:03.820Z,36.00
2018-07-22T12:53:31.964Z,35.90
2018-07-22T12:56:00.116Z,36.00
2018-07-22T12:58:28.262Z,35.70
2018-07-22T13:00:56.543Z,35.60
2018-07-22T13:03:24.808Z,34.90
2018-07-22T13:05:53.059Z,34.90
2018-07-22T13:10:49.483Z,35.10
2018-07-22T13:13:17.643Z,35.00
2018-07-22T13:15:45.826Z,34.60
2018-07-22T13:18:14.021Z,35.30
2018-07-22T13:20:42.164Z,35.70
2018-07-22T13:23:10.469Z,35.10
2018-07-22T13:25:38.589Z,35.80
2018-07-22T13:28:06.893Z,36.50
2018-07-22T13:30:35.029Z,35.60
2018-07-22T13:33:03.202Z,36.00
2018-07-22T13:35:31.337Z,36.60
2018-07-22T13:37:59.529Z,36.20
2018-07-22T13:40:27.717Z,36.20
2018-07-22T13:42:55.981Z,36.30
2018-07-22T13:45:24.479Z,35.70
2018-07-22T13:47:52.589Z,35.60
2018-07-22T13:50:20.795Z,35.40
2018-07-22T13:55:21.256Z,35.30
2018-07-22T13:57:49.450Z,34.70
2018-07-22T14:00:17.685Z,34.50
2018-07-22T14:02:45.795Z,34.30
2018-07-22T14:05:13.942Z,34.50
2018-07-22T14:07:42.166Z,34.90
2018-07-22T14:10:10.536Z,35.00
2018-07-22T14:12:38.781Z,35.80
2018-07-22T14:15:07.102Z,36.40
2018-07-22T14:17:35.391Z,36.50
2018-07-22T14:20:03.898Z,36.80
2018-07-22T14:22:32.143Z,36.80
2018-07-22T14:25:00.303Z,37.00
2018-07-22T14:27:28.439Z,37.30
2018-07-22T14:29:56.655Z,37.60
2018-07-22T14:32:24.805Z,37.20
2018-07-22T14:34:53.011Z,36.70
2018-07-22T14:37:21.200Z,37.40
2018-07-22T14:39:49.874Z,37.90
2018-07-22T14:42:18.118Z,37.80
2018-07-22T14:44:46.860Z,37.30
2018-07-22T14:47:15.172Z,37.50
2018-07-22T14:49:43.358Z,37.90
2018-07-22T14:52:12.413Z,37.60
2018-07-22T14:54:40.624Z,37.60
2018-07-22T14:57:08.802Z,37.70
2018-07-22T14:59:37.134Z,37.50
2018-07-22T15:02:05.511Z,37.40
2018-07-22T15:04:33.761Z,37.30
2018-07-22T15:07:02.957Z,37.30
2018-07-22T15:09:31.103Z,37.60
2018-07-22T15:11:59.401Z,37.70
2018-07-22T15:14:27.522Z,38.00
2018-07-22T15:16:55.721Z,38.20
2018-07-22T15:19:23.872Z,38.50
2018-07-22T15:21:52.049Z,38.70
2018-07-22T15:24:20.416Z,38.90
2018-07-22T15:26:48.657Z,39.20
2018-07-22T15:31:45.961Z,38.80
2018-07-22T15:34:14.121Z,38.50
2018-07-22T15:39:11.727Z,38.10
2018-07-22T15:41:40.151Z,38.40
2018-07-22T15:44:08.270Z,38.30
2018-07-22T15:49:05.026Z,38.20
2018-07-22T15:51:33.216Z,38.20
2018-07-22T15:56:29.415Z,38.70
2018-07-22T15:58:58.138Z,38.60
2018-07-22T16:01:27.686Z,38.80
2018-07-22T16:03:55.846Z,39.30
2018-07-22T16:08:51.985Z,39.20
2018-07-22T16:11:20.122Z,38.70
2018-07-22T16:13:48.649Z,38.90
2018-07-22T16:18:45.177Z,38.70
2018-07-22T16:21:13.494Z,38.80
2018-07-22T16:23:41.658Z,38.90
2018-07-22T16:26:09.884Z,39.30
2018-07-22T16:28:38.119Z,38.90
2018-07-22T16:33:34.510Z,39.20
2018-07-22T16:36:04.055Z,38.70
2018-07-22T16:38:32.205Z,38.70
2018-07-22T16:43:28.848Z,38.40
2018-07-22T16:48:25.224Z,39.10
2018-07-22T16:50:53.370Z,39.30
2018-07-22T16:55:49.913Z,39.50
2018-07-22T16:58:18.199Z,40.10
2018-07-22T17:00:46.370Z,40.70
2018-07-22T17:03:14.583Z,41.00
2018-07-22T17:05:42.757Z,41.10
2018-07-22T17:08:11.007Z,41.20
2018-07-22T17:10:39.450Z,41.80
2018-07-22T17:13:07.588Z,41.50
2018-07-22T17:15:35.845Z,41.70
2018-07-22T17:18:04.099Z,42.00
2018-07-22T17:20:32.521Z,42.20
2018-07-22T17:25:28.955Z,43.00
2018-07-22T17:27:57.152Z,42.50
2018-07-22T17:30:25.387Z,42.80
2018-07-22T17:32:53.687Z,42.00
2018-07-22T17:35:22.133Z,42.10
2018-07-22T17:37:51.415Z,42.10
2018-07-22T17:40:19.602Z,42.40
2018-07-22T17:42:47.954Z,42.30
2018-07-22T17:45:16.122Z,42.90
2018-07-22T17:47:44.418Z,42.80
2018-07-22T17:50:13.520Z,43.10
2018-07-22T17:52:41.683Z,43.10
2018-07-22T17:55:09.841Z,43.40
2018-07-22T17:57:38.075Z,44.20
2018-07-22T18:00:06.653Z,44.00
2018-07-22T18:02:35.165Z,44.20
2018-07-22T18:05:03.501Z,44.60
2018-07-22T18:07:31.872Z,44.90
2018-07-22T18:10:01.385Z,44.60
2018-07-22T18:12:29.690Z,44.80
2018-07-22T18:14:58.805Z,44.70
2018-07-22T18:17:27.089Z,45.20
2018-07-22T18:19:55.227Z,45.90
2018-07-22T18:22:23.491Z,46.80
2018-07-22T18:24:51.754Z,46.20
2018-07-22T18:27:19.940Z,47.00
2018-07-22T18:29:48.126Z,47.50
2018-07-22T18:32:16.282Z,47.50
2018-07-22T18:34:44.619Z,45.60
2018-07-22T18:37:12.957Z,45.60
2018-07-22T18:39:41.120Z,45.60
2018-07-22T18:42:09.843Z,46.60
2018-07-22T18:44:38.391Z,48.30
2018-07-22T18:47:07.209Z,48.80
2018-07-22T18:49:35.390Z,49.10
2018-07-22T18:52:03.687Z,49.20
2018-07-22T18:54:31.912Z,50.20
2018-07-22T18:57:00.118Z,50.40
2018-07-22T18:59:29.036Z,51.40
2018-07-22T19:01:57.727Z,51.40
2018-07-22T19:04:26.309Z,48.70
2018-07-22T19:06:54.893Z,48.90
2018-07-22T19:09:23.074Z,48.80
2018-07-22T19:11:51.300Z,48.70
2018-07-22T19:14:19.848Z,48.60
2018-07-22T19:16:48.033Z,48.80
2018-07-22T19:19:16.180Z,49.20
2018-07-22T19:21:44.478Z,49.40
2018-07-22T19:24:12.654Z,50.10
2018-07-22T19:26:40.839Z,49.80
2018-07-22T19:29:09.020Z,50.40
2018-07-22T19:31:37.816Z,51.90
2018-07-22T19:34:06.468Z,52.60
2018-07-22T19:36:34.756Z,53.50
2018-07-22T19:39:02.946Z,54.90
2018-07-22T19:41:31.097Z,55.70
2018-07-22T19:43:59.284Z,55.60
2018-07-22T19:46:27.445Z,55.90
2018-07-22T19:48:55.670Z,56.40
2018-07-22T19:51:24.072Z,56.70
2018-07-22T19:53:52.268Z,57.30
2018-07-22T19:56:20.701Z,57.90
2018-07-22T19:58:48.954Z,58.50
2018-07-22T20:06:14.608Z,60.10
2018-07-22T20:08:42.976Z,61.00
2018-07-22T20:11:11.175Z,61.00
2018-07-22T20:13:39.520Z,62.70
2018-07-22T20:16:07.698Z,63.60
2018-07-22T20:18:35.874Z,64.30
2018-07-22T20:21:04.090Z,65.30
2018-07-22T20:23:32.355Z,66.10
2018-07-22T20:26:00.671Z,67.00
2018-07-22T20:28:28.980Z,67.80
2018-07-22T20:30:57.119Z,68.60
2018-07-22T20:33:25.355Z,69.40
2018-07-22T20:35:53.607Z,70.10
2018-07-22T20:38:21.773Z,70.60
2018-07-22T20:40:49.987Z,71.20
2018-07-22T20:43:18.261Z,71.60
2018-07-22T20:45:46.397Z,72.10
2018-07-22T20:50:42.717Z,73.00
2018-07-22T20:53:10.834Z,73.30
2018-07-22T20:58:06.962Z,73.80
2018-07-22T21:00:35.147Z,74.60
2018-07-22T21:03:03.386Z,74.90
2018-07-22T21:05:31.660Z,75.30
2018-07-22T21:07:59.800Z,75.80
2018-07-22T21:13:07.853Z,76.80
2018-07-22T21:15:36.200Z,78.00
2018-07-22T21:20:32.342Z,77.20
2018-07-22T21:23:00.617Z,77.50
2018-07-22T21:25:28.827Z,77.80
2018-07-22T21:27:57.048Z,78.10
2018-07-22T21:30:25.258Z,78.50
2018-07-22T21:32:53.424Z,79.00
2018-07-22T21:35:23.198Z,79.30
2018-07-22T21:37:51.440Z,80.00
2018-07-22T21:40:19.737Z,80.40
2018-07-22T21:42:47.938Z,80.60
2018-07-22T21:45:16.195Z,81.10
2018-07-22T21:47:44.610Z,81.60
2018-07-22T21:50:12.768Z,82.00
2018-07-22T21:52:41.175Z,82.30
2018-07-22T21:55:09.575Z,82.50
2018-07-22T21:57:38.078Z,82.70
2018-07-22T22:00:14.786Z,83.00
2018-07-22T22:05:11.087Z,83.00
2018-07-22T22:07:39.314Z,83.00
2018-07-22T22:10:07.497Z,83.50
2018-07-22T22:12:35.703Z,83.80
2018-07-22T22:15:08.869Z,84.90
2018-07-22T22:17:37.060Z,84.50
2018-07-22T22:20:06.015Z,85.00
2018-07-22T22:22:34.312Z,85.30
2018-07-22T22:25:02.487Z,85.50
2018-07-22T22:27:30.709Z,85.60
2018-07-22T22:29:58.858Z,85.80
2018-07-22T22:32:27.805Z,86.10
2018-07-22T22:34:56.059Z,85.80
2018-07-22T22:37:24.414Z,86.50
2018-07-22T22:39:52.579Z,86.70
2018-07-22T22:42:20.789Z,87.00
2018-07-22T22:44:49.078Z,87.40
2018-07-22T22:47:17.259Z,87.60
2018-07-22T22:49:45.470Z,87.80
2018-07-22T22:52:13.590Z,88.20
2018-07-22T22:54:41.763Z,88.70
2018-07-22T22:57:09.877Z,89.10
2018-07-22T22:59:38.014Z,89.40
2018-07-22T23:02:06.386Z,89.80
2018-07-22T23:04:34.508Z,90.10
2018-07-22T23:07:02.926Z,90.10
2018-07-22T23:09:31.227Z,90.20
2018-07-22T23:11:59.342Z,90.40
2018-07-22T23:14:27.544Z,90.50
2018-07-22T23:16:55.778Z,90.70
2018-07-22T23:19:24.161Z,90.80
2018-07-22T23:21:52.399Z,90.90
2018-07-22T23:24:20.771Z,91.10
2018-07-22T23:26:48.931Z,91.20
2018-07-22T23:29:17.062Z,91.30
2018-07-22T23:31:46.038Z,91.40
2018-07-22T23:34:14.172Z,91.50
2018-07-22T23:36:42.312Z,91.90
2018-07-22T23:39:10.986Z,91.80
2018-07-22T23:41:39.308Z,91.90
2018-07-22T23:44:07.872Z,92.00
2018-07-22T23:46:36.125Z,92.20
2018-07-22T23:49:04.239Z,92.30
2018-07-22T23:51:32.399Z,92.40
2018-07-22T23:54:00.493Z,92.50
2018-07-22T23:56:28.678Z,92.60
2018-07-22T23:58:56.874Z,92.60
